Time;durP1;ratioP1;P1;durP2;ratioP2;P2;SDS_P1;SDS_P2;PMS_P1;PMS_P2;Temp;Humidity;BMP_temperature;BMP_pressure;BME280_temperature;BME280_humidity;BME280_pressure;Samples;Min_cycle;Max_cycle;Signal;HPM_P1;HPM_P2
2022/05/24 00:01:30;;;;;;;1.88;1.70;;;;;;;;;;5140739;27;20608;-63
2022/05/24 00:03:59;;;;;;;2.33;2.00;;;;;;;;;;5140960;27;20795;-64
2022/05/24 00:06:27;;;;;;;2.83;1.90;;;;;;;;;;5140672;27;20516;-63
2022/05/24 00:08:55;;;;;;;2.00;1.80;;;;;;;;;;5140191;27;20221;-63
2022/05/24 00:11:23;;;;;;;1.95;1.48;;;;;;;;;;5140065;27;20211;-63
2022/05/24 00:13:50;;;;;;;2.10;1.73;;;;;;;;;;5139454;27;20222;-69
2022/05/24 00:16:18;;;;;;;2.38;2.00;;;;;;;;;;5139494;27;20234;-63
2022/05/24 00:18:45;;;;;;;2.15;1.95;;;;;;;;;;5140744;27;20206;-63
2022/05/24 00:21:14;;;;;;;2.00;1.90;;;;;;;;;;5140494;27;20206;-64
2022/05/24 00:23:41;;;;;;;4.22;1.83;;;;;;;;;;5139958;27;20244;-63
2022/05/24 00:26:10;;;;;;;1.63;1.50;;;;;;;;;;5140039;27;20202;-64
2022/05/24 00:28:38;;;;;;;2.17;1.98;;;;;;;;;;5140253;27;20209;-65
2022/05/24 00:31:05;;;;;;;4.10;2.08;;;;;;;;;;5140290;27;20205;-63
2022/05/24 00:33:34;;;;;;;2.13;1.55;;;;;;;;;;5140321;27;20611;-63
2022/05/24 00:36:02;;;;;;;2.67;1.60;;;;;;;;;;5140222;27;20647;-63
2022/05/24 00:38:36;;;;;;;2.13;1.92;;;;;;;;;;5140224;27;20198;-63
2022/05/24 00:41:13;;;;;;;2.42;1.50;;;;;;;;;;5139482;27;20213;-64
2022/05/24 00:43:43;;;;;;;2.33;1.65;;;;;;;;;;5139482;27;20226;-63
2022/05/24 00:46:13;;;;;;;2.40;1.67;;;;;;;;;;5139936;27;20210;-63
2022/05/24 00:48:44;;;;;;;3.63;1.88;;;;;;;;;;5139370;27;20202;-63
2022/05/24 00:51:14;;;;;;;2.10;1.90;;;;;;;;;;5140076;27;20203;-64
2022/05/24 00:53:47;;;;;;;2.00;1.80;;;;;;;;;;5139712;27;20206;-63
2022/05/24 00:56:18;;;;;;;2.17;1.80;;;;;;;;;;5140080;27;20202;-63
2022/05/24 00:58:48;;;;;;;1.80;1.70;;;;;;;;;;5139919;27;20214;-63
2022/05/24 01:01:22;;;;;;;2.80;1.75;;;;;;;;;;5139632;27;20216;-63
2022/05/24 01:03:50;;;;;;;2.20;1.92;;;;;;;;;;5139602;27;20269;-63
2022/05/24 01:06:17;;;;;;;2.63;1.77;;;;;;;;;;5139714;27;20202;-62
2022/05/24 01:08:46;;;;;;;1.80;1.70;;;;;;;;;;5139500;27;20330;-63
2022/05/24 01:11:15;;;;;;;1.80;1.70;;;;;;;;;;5139622;27;20209;-63
2022/05/24 01:13:43;;;;;;;1.60;1.50;;;;;;;;;;5139826;27;20199;-63
2022/05/24 01:16:11;;;;;;;1.77;1.50;;;;;;;;;;5139706;27;20249;-63
2022/05/24 01:18:39;;;;;;;3.15;1.58;;;;;;;;;;5139437;27;20261;-63
2022/05/24 01:21:09;;;;;;;2.83;1.80;;;;;;;;;;5139093;27;20293;-63
2022/05/24 01:23:41;;;;;;;2.15;1.70;;;;;;;;;;5139344;27;20232;-63
2022/05/24 01:26:12;;;;;;;1.67;1.58;;;;;;;;;;5139580;27;20202;-64
2022/05/24 01:28:42;;;;;;;2.00;1.70;;;;;;;;;;5139635;27;20202;-63
2022/05/24 01:31:11;;;;;;;1.98;1.45;;;;;;;;;;5139336;27;20210;-63
2022/05/24 01:36:20;;;;;;;2.20;1.50;;;;;;;;;;5104468;27;20195;-63
2022/05/24 01:38:49;;;;;;;3.10;2.00;;;;;;;;;;5139412;27;20212;-64
2022/05/24 01:41:19;;;;;;;1.75;1.50;;;;;;;;;;5139419;27;20215;-63
2022/05/24 01:43:49;;;;;;;2.00;1.58;;;;;;;;;;5138819;27;20699;-63
2022/05/24 01:46:18;;;;;;;1.55;1.45;;;;;;;;;;5139210;27;20217;-63
2022/05/24 01:48:48;;;;;;;1.95;1.60;;;;;;;;;;5139068;27;20482;-62
2022/05/24 01:51:19;;;;;;;1.63;1.40;;;;;;;;;;5139333;27;20202;-63
2022/05/24 01:53:48;;;;;;;1.58;1.40;;;;;;;;;;5139096;27;20221;-63
2022/05/24 01:56:17;;;;;;;1.60;1.50;;;;;;;;;;5137839;27;20221;-63
2022/05/24 01:58:47;;;;;;;1.55;1.45;;;;;;;;;;5138865;27;20209;-64
2022/05/24 02:01:21;;;;;;;2.22;1.30;;;;;;;;;;5138796;27;20492;-63
2022/05/24 02:03:48;;;;;;;1.52;1.30;;;;;;;;;;5138098;27;20225;-62
2022/05/24 02:06:20;;;;;;;1.60;1.50;;;;;;;;;;5138872;27;20217;-63
2022/05/24 02:08:47;;;;;;;1.95;1.75;;;;;;;;;;5139016;27;20209;-63
2022/05/24 02:11:16;;;;;;;1.67;1.40;;;;;;;;;;5138797;28;20224;-63
2022/05/24 02:13:45;;;;;;;2.08;1.50;;;;;;;;;;5138651;28;20651;-63
2022/05/24 02:16:15;;;;;;;2.15;1.42;;;;;;;;;;5138381;28;20662;-63
2022/05/24 02:18:44;;;;;;;2.58;1.42;;;;;;;;;;5138911;28;20213;-63
2022/05/24 02:21:11;;;;;;;1.73;1.33;;;;;;;;;;5138804;28;20202;-64
2022/05/24 02:23:41;;;;;;;2.10;1.60;;;;;;;;;;5138492;28;20237;-63
2022/05/24 02:26:09;;;;;;;1.80;1.55;;;;;;;;;;5138581;28;20296;-63
2022/05/24 02:28:37;;;;;;;1.65;1.55;;;;;;;;;;5138710;28;20217;-63
2022/05/24 02:31:07;;;;;;;1.60;1.50;;;;;;;;;;5138681;28;20469;-63
2022/05/24 02:33:34;;;;;;;1.35;1.20;;;;;;;;;;5138749;28;20588;-63
2022/05/24 02:36:03;;;;;;;1.65;1.50;;;;;;;;;;5138541;28;20230;-63
2022/05/24 02:38:31;;;;;;;1.55;1.45;;;;;;;;;;5138832;28;20280;-63
2022/05/24 02:43:44;;;;;;;1.33;1.23;;;;;;;;;;5138064;28;20603;-63
2022/05/24 02:46:12;;;;;;;2.08;1.70;;;;;;;;;;5138475;28;20202;-63
2022/05/24 02:48:39;;;;;;;1.42;1.33;;;;;;;;;;5137599;28;20211;-63
2022/05/24 02:51:10;;;;;;;1.58;1.38;;;;;;;;;;5138157;28;20206;-63
2022/05/24 02:53:38;;;;;;;1.40;1.30;;;;;;;;;;5138437;28;20199;-62
2022/05/24 02:56:06;;;;;;;1.40;1.30;;;;;;;;;;5138477;28;20201;-63
2022/05/24 02:58:33;;;;;;;1.55;1.45;;;;;;;;;;5138035;28;20202;-63
2022/05/24 03:01:00;;;;;;;1.80;1.40;;;;;;;;;;5137919;28;20203;-63
2022/05/24 03:03:28;;;;;;;1.50;1.40;;;;;;;;;;5138065;28;20585;-63
2022/05/24 03:05:55;;;;;;;1.83;1.20;;;;;;;;;;5138267;27;20198;-63
2022/05/24 03:11:10;;;;;;;1.55;1.45;;;;;;;;;;5141175;27;20193;-63
2022/05/24 03:16:23;;;;;;;2.72;1.33;;;;;;;;;;5140991;27;20657;-63
2022/05/24 03:18:50;;;;;;;1.33;1.23;;;;;;;;;;5141683;27;20202;-63
2022/05/24 03:21:18;;;;;;;1.52;1.20;;;;;;;;;;5141152;27;20198;-63
2022/05/24 03:23:46;;;;;;;1.00;1.00;;;;;;;;;;5141168;27;20230;-63
2022/05/24 03:26:14;;;;;;;2.17;1.38;;;;;;;;;;5142080;27;20217;-62
2022/05/24 03:28:42;;;;;;;1.75;1.20;;;;;;;;;;5141827;27;20212;-62
2022/05/24 03:31:09;;;;;;;1.27;1.10;;;;;;;;;;5140958;27;20591;-63
2022/05/24 03:33:37;;;;;;;1.67;1.08;;;;;;;;;;5141008;27;20206;-64
2022/05/24 03:36:05;;;;;;;1.30;1.20;;;;;;;;;;5141193;27;20213;-64
2022/05/24 03:38:32;;;;;;;1.40;1.30;;;;;;;;;;5140986;27;20209;-63
2022/05/24 03:41:01;;;;;;;1.15;1.05;;;;;;;;;;5140868;27;20213;-63
2022/05/24 03:43:28;;;;;;;1.35;1.25;;;;;;;;;;5140517;27;20217;-63
2022/05/24 03:46:02;;;;;;;2.60;1.25;;;;;;;;;;5140331;27;20226;-63
2022/05/24 03:48:30;;;;;;;1.60;1.30;;;;;;;;;;5141368;27;20275;-63
2022/05/24 03:50:57;;;;;;;1.30;1.20;;;;;;;;;;5140557;27;20212;-63
2022/05/24 03:53:25;;;;;;;1.63;1.30;;;;;;;;;;5140455;27;20288;-63
2022/05/24 03:55:52;;;;;;;1.25;1.10;;;;;;;;;;5140611;27;20198;-63
2022/05/24 03:58:21;;;;;;;1.20;1.10;;;;;;;;;;5140673;27;20507;-63
2022/05/24 04:00:48;;;;;;;1.55;1.20;;;;;;;;;;5140527;27;20202;-63
2022/05/24 04:03:16;;;;;;;1.33;1.23;;;;;;;;;;5140374;27;20202;-63
2022/05/24 04:05:43;;;;;;;1.35;1.25;;;;;;;;;;5139956;27;20235;-64
2022/05/24 04:08:10;;;;;;;1.67;1.20;;;;;;;;;;5139846;27;20520;-62
2022/05/24 04:10:39;;;;;;;1.55;1.42;;;;;;;;;;5140333;27;20207;-63
2022/05/24 04:13:07;;;;;;;1.40;1.30;;;;;;;;;;5139024;27;20227;-63
2022/05/24 04:15:36;;;;;;;1.40;1.30;;;;;;;;;;5139345;27;20234;-62
2022/05/24 04:18:03;;;;;;;1.27;1.15;;;;;;;;;;5138363;27;20566;-63
2022/05/24 04:20:31;;;;;;;1.30;1.20;;;;;;;;;;5139541;27;20210;-62
2022/05/24 04:22:59;;;;;;;1.48;1.30;;;;;;;;;;5139088;27;20249;-63
2022/05/24 04:25:26;;;;;;;1.75;1.20;;;;;;;;;;5139328;27;20633;-64
2022/05/24 04:27:54;;;;;;;1.50;1.40;;;;;;;;;;5138781;27;20206;-64
2022/05/24 04:30:22;;;;;;;1.55;1.20;;;;;;;;;;5137494;27;20259;-63
2022/05/24 04:32:50;;;;;;;1.67;1.30;;;;;;;;;;5138089;27;20228;-63
2022/05/24 04:35:18;;;;;;;2.17;1.30;;;;;;;;;;5139109;27;20607;-63
2022/05/24 04:37:45;;;;;;;1.17;1.08;;;;;;;;;;5138823;27;20218;-63
2022/05/24 04:40:13;;;;;;;1.30;1.20;;;;;;;;;;5137870;27;20208;-62
2022/05/24 04:42:40;;;;;;;1.30;1.20;;;;;;;;;;5138904;27;20212;-64
2022/05/24 04:45:09;;;;;;;1.45;1.00;;;;;;;;;;5138453;27;20313;-63
2022/05/24 04:47:36;;;;;;;1.52;1.02;;;;;;;;;;5137481;27;20267;-62
2022/05/24 04:50:06;;;;;;;1.30;1.10;;;;;;;;;;5136587;27;20209;-63
2022/05/24 04:52:35;;;;;;;1.27;1.00;;;;;;;;;;5137392;27;20491;-64
2022/05/24 04:55:03;;;;;;;1.30;1.20;;;;;;;;;;5137748;27;20209;-63
2022/05/24 04:57:30;;;;;;;1.30;1.20;;;;;;;;;;5137371;27;20210;-63
2022/05/24 04:59:58;;;;;;;1.20;1.10;;;;;;;;;;5137350;27;20210;-63
2022/05/24 05:02:25;;;;;;;1.20;1.10;;;;;;;;;;5136694;27;20198;-63
2022/05/24 05:04:54;;;;;;;1.20;1.10;;;;;;;;;;5136612;27;20222;-63
2022/05/24 05:07:23;;;;;;;1.05;1.00;;;;;;;;;;5136000;27;20197;-64
2022/05/24 05:09:51;;;;;;;1.67;1.10;;;;;;;;;;5136559;27;20205;-63
2022/05/24 05:12:20;;;;;;;1.40;1.23;;;;;;;;;;5136310;27;20214;-63
2022/05/24 05:14:47;;;;;;;1.55;1.23;;;;;;;;;;5136321;27;20645;-63
2022/05/24 05:17:16;;;;;;;1.10;1.10;;;;;;;;;;5136630;27;20771;-63
2022/05/24 05:19:44;;;;;;;1.83;1.15;;;;;;;;;;5135927;27;20202;-63
2022/05/24 05:22:11;;;;;;;1.15;1.13;;;;;;;;;;5136957;27;20194;-63
2022/05/24 05:24:40;;;;;;;1.38;1.15;;;;;;;;;;5136636;27;20271;-62
2022/05/24 05:27:08;;;;;;;1.25;1.17;;;;;;;;;;5135398;27;20768;-63
2022/05/24 05:32:21;;;;;;;1.23;1.13;;;;;;;;;;5134675;27;20260;-63
2022/05/24 05:34:49;;;;;;;1.20;1.10;;;;;;;;;;5135326;27;20195;-63
2022/05/24 05:37:17;;;;;;;1.40;1.30;;;;;;;;;;5135889;27;20214;-63
2022/05/24 05:39:45;;;;;;;1.20;1.10;;;;;;;;;;5135953;27;20202;-63
2022/05/24 05:42:13;;;;;;;1.83;1.15;;;;;;;;;;5136071;27;20206;-64
2022/05/24 05:44:40;;;;;;;1.10;1.00;;;;;;;;;;5135723;27;20490;-63
2022/05/24 05:47:08;;;;;;;1.08;0.98;;;;;;;;;;5135260;27;20198;-63
2022/05/24 05:49:35;;;;;;;1.17;1.08;;;;;;;;;;5135436;27;20205;-63
2022/05/24 05:52:03;;;;;;;1.50;1.10;;;;;;;;;;5135263;27;20205;-64
2022/05/24 05:54:31;;;;;;;1.02;1.00;;;;;;;;;;5136203;27;20302;-64
2022/05/24 05:56:59;;;;;;;0.82;0.80;;;;;;;;;;5135878;27;20214;-63
2022/05/24 05:59:27;;;;;;;2.45;1.13;;;;;;;;;;5136514;27;20750;-62
2022/05/24 06:01:58;;;;;;;1.65;1.40;;;;;;;;;;5135260;27;20202;-63
2022/05/24 06:04:25;;;;;;;1.20;1.10;;;;;;;;;;5135475;27;20609;-63
2022/05/24 06:06:53;;;;;;;1.08;0.98;;;;;;;;;;5136008;27;20202;-63
2022/05/24 06:09:21;;;;;;;0.95;0.95;;;;;;;;;;5136050;27;20202;-63
2022/05/24 06:11:48;;;;;;;1.42;0.90;;;;;;;;;;5136307;28;20198;-63
2022/05/24 06:14:17;;;;;;;1.00;1.00;;;;;;;;;;5135989;28;20216;-63
2022/05/24 06:16:44;;;;;;;1.10;1.00;;;;;;;;;;5114741;28;20211;-62
2022/05/24 06:19:12;;;;;;;1.00;1.00;;;;;;;;;;5135457;28;20198;-63
2022/05/24 06:21:39;;;;;;;1.35;1.20;;;;;;;;;;5135727;28;20198;-62
2022/05/24 06:24:07;;;;;;;0.95;0.95;;;;;;;;;;5136799;28;20718;-64
2022/05/24 06:26:35;;;;;;;1.20;1.10;;;;;;;;;;5135918;28;20241;-62
2022/05/24 06:29:04;;;;;;;1.05;1.00;;;;;;;;;;5135881;28;20199;-63
2022/05/24 06:31:33;;;;;;;1.40;0.95;;;;;;;;;;5135402;28;20271;-62
2022/05/24 06:34:01;;;;;;;1.15;1.05;;;;;;;;;;5135948;28;20210;-62
2022/05/24 06:36:28;;;;;;;1.33;1.23;;;;;;;;;;5135536;28;20202;-62
2022/05/24 06:38:56;;;;;;;1.20;1.10;;;;;;;;;;5135811;28;20565;-63
2022/05/24 06:41:23;;;;;;;1.30;1.20;;;;;;;;;;5136606;27;20202;-63
2022/05/24 06:43:50;;;;;;;1.42;1.25;;;;;;;;;;5139784;27;20202;-64
2022/05/24 06:46:18;;;;;;;1.10;1.00;;;;;;;;;;5139848;27;20226;-63
2022/05/24 06:48:47;;;;;;;1.20;1.10;;;;;;;;;;5139040;27;20202;-63
2022/05/24 06:51:16;;;;;;;1.40;1.15;;;;;;;;;;5139414;27;20210;-64
2022/05/24 06:53:44;;;;;;;1.25;1.15;;;;;;;;;;5139759;27;20202;-63
2022/05/24 06:56:11;;;;;;;1.13;0.98;;;;;;;;;;5139194;27;20190;-62
2022/05/24 06:58:39;;;;;;;1.05;1.00;;;;;;;;;;5138870;27;20202;-64
2022/05/24 07:03:54;;;;;;;1.20;1.10;;;;;;;;;;5138627;27;20193;-63
2022/05/24 07:06:22;;;;;;;1.20;1.20;;;;;;;;;;5139240;27;20226;-63
2022/05/24 07:08:49;;;;;;;1.35;1.10;;;;;;;;;;5139250;27;20623;-62
2022/05/24 07:11:17;;;;;;;1.30;1.20;;;;;;;;;;5138744;27;20581;-62
2022/05/24 07:13:45;;;;;;;1.23;1.13;;;;;;;;;;5138509;27;20198;-63
2022/05/24 07:16:13;;;;;;;1.42;1.10;;;;;;;;;;5137535;27;20606;-62
2022/05/24 07:18:40;;;;;;;1.25;1.15;;;;;;;;;;5137963;27;20198;-63
2022/05/24 07:21:09;;;;;;;1.30;1.20;;;;;;;;;;5137550;27;20206;-62
2022/05/24 07:23:37;;;;;;;1.25;1.17;;;;;;;;;;5137359;27;20218;-63
2022/05/24 07:26:12;;;;;;;1.30;1.20;;;;;;;;;;5137971;27;20226;-63
2022/05/24 07:28:41;;;;;;;1.55;1.15;;;;;;;;;;5138068;27;20489;-62
2022/05/24 07:31:08;;;;;;;1.25;1.20;;;;;;;;;;5138230;27;20202;-63
2022/05/24 07:33:36;;;;;;;1.30;1.20;;;;;;;;;;5137911;27;20209;-63
2022/05/24 07:36:04;;;;;;;1.58;1.30;;;;;;;;;;5137590;27;20286;-62
2022/05/24 07:38:33;;;;;;;1.30;1.20;;;;;;;;;;5137713;27;20716;-63
2022/05/24 07:46:31;;;;;;;0.95;0.95;;;;;;;;;;5137994;27;20278;-62
2022/05/24 07:48:58;;;;;;;1.13;1.10;;;;;;;;;;5137756;27;20198;-63
2022/05/24 07:51:25;;;;;;;1.55;1.20;;;;;;;;;;5137672;27;20191;-63
2022/05/24 07:53:54;;;;;;;1.40;1.30;;;;;;;;;;5136850;27;20202;-63
2022/05/24 07:56:22;;;;;;;1.13;1.02;;;;;;;;;;5138197;27;20201;-63
2022/05/24 07:58:50;;;;;;;1.35;1.25;;;;;;;;;;5137920;27;20210;-64
2022/05/24 08:01:19;;;;;;;1.05;0.95;;;;;;;;;;5138564;27;20202;-63
2022/05/24 08:03:47;;;;;;;1.33;1.17;;;;;;;;;;5137764;27;20638;-63
2022/05/24 08:06:15;;;;;;;1.05;1.00;;;;;;;;;;5137340;27;20237;-64
2022/05/24 08:08:42;;;;;;;1.13;1.10;;;;;;;;;;5138278;27;20220;-62
2022/05/24 08:11:11;;;;;;;2.70;1.23;;;;;;;;;;5138251;27;20202;-63
2022/05/24 08:13:39;;;;;;;1.60;1.20;;;;;;;;;;5139129;27;20198;-63
2022/05/24 08:16:07;;;;;;;1.50;1.30;;;;;;;;;;5137571;27;20521;-63
2022/05/24 08:18:34;;;;;;;1.48;1.10;;;;;;;;;;5137394;27;20186;-63
2022/05/24 08:21:02;;;;;;;2.55;1.52;;;;;;;;;;5137924;27;20209;-63
2022/05/24 08:23:30;;;;;;;1.35;1.25;;;;;;;;;;5137631;27;20310;-63
2022/05/24 08:25:57;;;;;;;2.03;1.30;;;;;;;;;;5136652;27;20222;-63
2022/05/24 08:28:27;;;;;;;2.00;1.23;;;;;;;;;;5137032;27;20202;-63
2022/05/24 08:30:55;;;;;;;1.77;1.20;;;;;;;;;;5136782;27;20207;-64
2022/05/24 08:33:23;;;;;;;1.40;1.30;;;;;;;;;;5137569;27;20202;-64
2022/05/24 08:35:52;;;;;;;2.20;1.40;;;;;;;;;;5137897;27;20275;-63
2022/05/24 08:38:19;;;;;;;1.42;1.33;;;;;;;;;;5136970;27;20202;-63
2022/05/24 08:40:48;;;;;;;1.40;1.30;;;;;;;;;;5137303;27;20229;-63
2022/05/24 08:43:27;;;;;;;1.23;1.13;;;;;;;;;;5137388;27;20666;-63
2022/05/24 08:48:46;;;;;;;2.33;1.20;;;;;;;;;;5136551;27;20201;-63
2022/05/24 08:51:17;;;;;;;1.25;1.10;;;;;;;;;;5136656;27;20233;-63
2022/05/24 08:53:46;;;;;;;1.98;1.33;;;;;;;;;;5137370;27;20199;-63
2022/05/24 08:56:16;;;;;;;2.17;1.20;;;;;;;;;;5137465;27;20194;-63
2022/05/24 08:58:45;;;;;;;1.33;1.23;;;;;;;;;;5137571;27;20503;-63
2022/05/24 09:01:15;;;;;;;1.27;1.17;;;;;;;;;;5136413;27;20202;-63
2022/05/24 09:03:43;;;;;;;1.30;1.20;;;;;;;;;;5136719;27;20454;-62
2022/05/24 09:06:13;;;;;;;1.10;1.00;;;;;;;;;;5137473;27;20232;-63
2022/05/24 09:08:43;;;;;;;1.08;1.08;;;;;;;;;;5136428;27;20302;-63
2022/05/24 09:11:14;;;;;;;1.05;1.00;;;;;;;;;;5137065;27;20208;-63
2022/05/24 09:13:59;;;;;;;1.15;1.05;;;;;;;;;;5135805;27;20796;-63
2022/05/24 09:16:35;;;;;;;1.23;1.13;;;;;;;;;;5117557;27;20222;-63
2022/05/24 09:19:05;;;;;;;1.25;1.17;;;;;;;;;;5115503;28;20195;-63
2022/05/24 09:21:33;;;;;;;1.30;1.10;;;;;;;;;;5115837;28;20199;-63
2022/05/24 09:24:07;;;;;;;1.02;1.02;;;;;;;;;;5115457;28;20211;-63
2022/05/24 09:26:36;;;;;;;1.25;1.10;;;;;;;;;;5115672;28;20252;-63
2022/05/24 09:29:13;;;;;;;1.48;1.20;;;;;;;;;;5115119;28;20195;-63
2022/05/24 09:31:43;;;;;;;1.40;1.20;;;;;;;;;;5115462;28;20263;-63
2022/05/24 09:34:24;;;;;;;1.20;1.10;;;;;;;;;;5115306;28;20199;-63
2022/05/24 09:36:54;;;;;;;1.30;1.00;;;;;;;;;;5115484;28;20191;-64
2022/05/24 09:39:24;;;;;;;1.00;1.00;;;;;;;;;;5114661;28;20265;-63
2022/05/24 09:41:55;;;;;;;1.00;1.00;;;;;;;;;;5130976;27;20194;-63
2022/05/24 09:44:23;;;;;;;1.05;0.95;;;;;;;;;;5135589;27;20198;-63
2022/05/24 09:46:52;;;;;;;0.77;0.77;;;;;;;;;;5135270;27;20228;-63
2022/05/24 09:49:23;;;;;;;1.05;1.00;;;;;;;;;;5135735;27;20213;-63
2022/05/24 09:51:51;;;;;;;1.15;1.08;;;;;;;;;;5134910;27;20202;-63
2022/05/24 09:54:20;;;;;;;1.00;0.95;;;;;;;;;;5135696;27;20202;-64
2022/05/24 09:57:00;;;;;;;0.82;0.82;;;;;;;;;;5136366;27;20569;-64
2022/05/24 09:59:28;;;;;;;1.15;1.00;;;;;;;;;;5135610;27;20697;-63
2022/05/24 10:01:57;;;;;;;1.27;1.00;;;;;;;;;;5136062;27;20782;-63
2022/05/24 10:04:27;;;;;;;1.20;1.00;;;;;;;;;;5135235;27;20202;-63
2022/05/24 10:06:56;;;;;;;1.25;1.15;;;;;;;;;;5135943;27;20306;-62
2022/05/24 10:09:38;;;;;;;1.42;1.17;;;;;;;;;;5135085;27;20263;-63
2022/05/24 10:12:07;;;;;;;1.13;1.02;;;;;;;;;;5135022;28;20285;-63
2022/05/24 10:14:39;;;;;;;1.20;1.10;;;;;;;;;;5134504;28;20517;-63
2022/05/24 10:17:12;;;;;;;1.27;1.20;;;;;;;;;;5134745;27;20197;-63
2022/05/24 10:19:44;;;;;;;1.20;1.10;;;;;;;;;;5135256;28;20228;-63
2022/05/24 10:22:16;;;;;;;1.00;1.00;;;;;;;;;;5134416;28;20604;-63
2022/05/24 10:24:52;;;;;;;1.38;1.10;;;;;;;;;;5134578;28;20195;-63
2022/05/24 10:27:25;;;;;;;1.30;1.20;;;;;;;;;;5133192;28;20549;-63
2022/05/24 10:29:56;;;;;;;1.10;1.00;;;;;;;;;;5134056;28;20747;-63
2022/05/24 10:38:21;;;;;;;1.17;1.08;;;;;;;;;;5134845;28;20331;-63
2022/05/24 10:40:53;;;;;;;1.10;1.10;;;;;;;;;;5133921;28;20213;-63
2022/05/24 10:43:27;;;;;;;1.10;1.00;;;;;;;;;;5121861;28;20214;-63
2022/05/24 10:46:00;;;;;;;1.13;1.02;;;;;;;;;;5113802;28;20742;-63
2022/05/24 10:48:34;;;;;;;1.70;1.35;;;;;;;;;;5112744;28;20210;-63
2022/05/24 10:51:06;;;;;;;0.90;0.90;;;;;;;;;;5112773;28;20252;-63
2022/05/24 10:53:38;;;;;;;1.33;1.15;;;;;;;;;;5112491;28;20752;-63
2022/05/24 10:56:07;;;;;;;1.30;1.10;;;;;;;;;;5113456;28;20202;-63
2022/05/24 10:58:36;;;;;;;1.08;1.00;;;;;;;;;;5113597;28;20199;-63
2022/05/24 11:01:08;;;;;;;1.02;1.00;;;;;;;;;;5113383;28;20570;-63
2022/05/24 11:03:43;;;;;;;1.20;1.10;;;;;;;;;;5130006;28;20198;-63
2022/05/24 11:06:15;;;;;;;0.85;0.85;;;;;;;;;;5132446;28;20248;-63
2022/05/24 11:08:48;;;;;;;1.10;1.00;;;;;;;;;;5133894;28;20206;-63
2022/05/24 11:11:23;;;;;;;1.08;1.08;;;;;;;;;;5134275;28;20590;-63
2022/05/24 11:13:55;;;;;;;1.00;1.00;;;;;;;;;;5133764;28;20206;-63
2022/05/24 11:16:23;;;;;;;1.23;1.13;;;;;;;;;;5134440;28;20238;-63
2022/05/24 11:18:52;;;;;;;0.93;0.93;;;;;;;;;;5134718;28;20252;-63
2022/05/24 11:21:21;;;;;;;1.00;1.00;;;;;;;;;;5134379;28;20206;-63
2022/05/24 11:23:51;;;;;;;1.20;1.10;;;;;;;;;;5134717;28;20574;-63
2022/05/24 11:26:21;;;;;;;1.00;1.00;;;;;;;;;;5134610;27;20226;-63
2022/05/24 11:28:52;;;;;;;1.35;0.90;;;;;;;;;;5138785;27;20259;-64
2022/05/24 11:31:24;;;;;;;0.90;0.90;;;;;;;;;;5137577;27;20206;-63
2022/05/24 11:33:53;;;;;;;1.20;1.00;;;;;;;;;;5138541;27;20589;-63
2022/05/24 11:36:22;;;;;;;0.90;0.90;;;;;;;;;;5138157;27;20205;-63
2022/05/24 11:38:51;;;;;;;1.20;1.10;;;;;;;;;;5137607;27;20206;-63
2022/05/24 11:41:27;;;;;;;0.90;0.90;;;;;;;;;;5137988;27;20202;-63
2022/05/24 11:44:00;;;;;;;0.85;0.85;;;;;;;;;;5137325;27;20220;-63
2022/05/24 11:46:44;;;;;;;1.65;0.90;;;;;;;;;;5136398;27;20221;-65
2022/05/24 11:49:33;;;;;;;2.45;0.90;;;;;;;;;;5137162;27;20308;-63
2022/05/24 11:52:03;;;;;;;1.65;0.95;;;;;;;;;;5136730;27;20199;-63
2022/05/24 11:54:49;;;;;;;0.95;0.88;;;;;;;;;;5137985;27;20198;-63
2022/05/24 11:57:21;;;;;;;0.98;0.90;;;;;;;;;;5137055;27;20201;-63
2022/05/24 11:59:50;;;;;;;0.90;0.90;;;;;;;;;;5136975;27;20213;-63
2022/05/24 12:07:53;;;;;;;0.80;0.80;;;;;;;;;;5137296;27;20212;-63
2022/05/24 12:08:28;;;;;;;1.58;1.00;;;;;;;;;;5137571;27;20236;-63
2022/05/24 12:11:08;;;;;;;1.15;0.90;;;;;;;;;;5137758;27;20201;-63
2022/05/24 12:13:39;;;;;;;0.90;0.80;;;;;;;;;;5137898;27;20578;-63
2022/05/24 12:16:10;;;;;;;0.80;0.80;;;;;;;;;;5136628;27;20818;-63
2022/05/24 12:18:44;;;;;;;1.10;0.95;;;;;;;;;;5137164;27;20258;-63
2022/05/24 12:21:32;;;;;;;0.60;0.60;;;;;;;;;;5137262;27;20479;-63
2022/05/24 12:24:24;;;;;;;0.70;0.70;;;;;;;;;;5136333;27;20223;-64
2022/05/24 12:27:25;;;;;;;0.70;0.70;;;;;;;;;;5136876;27;20230;-63
2022/05/24 12:29:54;;;;;;;1.02;0.82;;;;;;;;;;5072925;28;20633;-62
2022/05/24 12:32:23;;;;;;;0.90;0.73;;;;;;;;;;5072772;28;20207;-63
2022/05/24 12:34:50;;;;;;;0.68;0.68;;;;;;;;;;5101973;27;20213;-63
2022/05/24 12:37:21;;;;;;;0.50;0.50;;;;;;;;;;5135543;27;20198;-62
2022/05/24 12:40:10;;;;;;;0.70;0.70;;;;;;;;;;5134481;27;20198;-63
2022/05/24 12:42:42;;;;;;;0.70;0.70;;;;;;;;;;5134053;27;20225;-63
2022/05/24 12:45:10;;;;;;;0.60;0.60;;;;;;;;;;5134907;27;20318;-62
2022/05/24 12:47:37;;;;;;;1.25;0.73;;;;;;;;;;5134314;27;20222;-62
2022/05/24 12:50:05;;;;;;;0.80;0.80;;;;;;;;;;5134151;27;20202;-62
2022/05/24 12:52:33;;;;;;;0.52;0.52;;;;;;;;;;5132639;27;20187;-62
2022/05/24 12:55:02;;;;;;;1.10;0.70;;;;;;;;;;5133432;27;20203;-63
2022/05/24 12:57:32;;;;;;;0.70;0.70;;;;;;;;;;5134162;27;20488;-63
2022/05/24 13:00:01;;;;;;;0.70;0.60;;;;;;;;;;5133516;27;20253;-62
2022/05/24 13:02:31;;;;;;;0.68;0.68;;;;;;;;;;5134255;27;20285;-62
2022/05/24 13:05:00;;;;;;;0.93;0.80;;;;;;;;;;5135347;27;20210;-63
2022/05/24 13:07:36;;;;;;;0.70;0.70;;;;;;;;;;5134859;27;20228;-62
2022/05/24 13:10:04;;;;;;;0.60;0.50;;;;;;;;;;5135011;27;20202;-62
2022/05/24 13:12:33;;;;;;;0.60;0.60;;;;;;;;;;5134739;27;20628;-62
2022/05/24 13:15:02;;;;;;;0.60;0.60;;;;;;;;;;5134280;27;20232;-63
2022/05/24 13:17:31;;;;;;;0.70;0.70;;;;;;;;;;5135458;27;20194;-63
2022/05/24 13:20:03;;;;;;;0.70;0.70;;;;;;;;;;5134205;27;20585;-62
2022/05/24 13:22:40;;;;;;;0.60;0.52;;;;;;;;;;5133380;27;20202;-62
2022/05/24 13:25:12;;;;;;;0.68;0.68;;;;;;;;;;5133539;27;20197;-63
2022/05/24 13:27:55;;;;;;;0.50;0.50;;;;;;;;;;5133857;27;20815;-63
2022/05/24 13:33:36;;;;;;;0.50;0.50;;;;;;;;;;5133323;27;20195;-63
2022/05/24 13:36:18;;;;;;;0.60;0.60;;;;;;;;;;5133708;27;20500;-62
2022/05/24 13:38:47;;;;;;;0.68;0.63;;;;;;;;;;5131523;27;20559;-63
2022/05/24 13:41:26;;;;;;;0.50;0.50;;;;;;;;;;5134354;27;20199;-63
2022/05/24 13:44:06;;;;;;;0.50;0.50;;;;;;;;;;5134527;27;20218;-63
2022/05/24 13:46:47;;;;;;;0.50;0.43;;;;;;;;;;5134591;27;20228;-63
2022/05/24 13:49:26;;;;;;;0.60;0.60;;;;;;;;;;5113830;28;20577;-63
2022/05/24 13:51:54;;;;;;;0.90;0.60;;;;;;;;;;5113198;28;20198;-63
2022/05/24 13:54:37;;;;;;;0.82;0.63;;;;;;;;;;5113353;28;20199;-63
2022/05/24 13:57:05;;;;;;;0.50;0.47;;;;;;;;;;5113459;28;20199;-63
2022/05/24 13:59:34;;;;;;;0.40;0.40;;;;;;;;;;5112819;28;20203;-64
2022/05/24 14:02:09;;;;;;;0.50;0.50;;;;;;;;;;5113283;28;20224;-62
2022/05/24 14:04:40;;;;;;;0.57;0.57;;;;;;;;;;5113138;28;20202;-62
2022/05/24 14:07:13;;;;;;;0.60;0.60;;;;;;;;;;5112634;28;20215;-62
2022/05/24 14:09:40;;;;;;;0.60;0.60;;;;;;;;;;5112419;28;20210;-63
2022/05/24 14:12:09;;;;;;;0.50;0.50;;;;;;;;;;5113799;28;20615;-63
2022/05/24 14:14:39;;;;;;;0.50;0.50;;;;;;;;;;5116273;28;20217;-66
2022/05/24 14:17:08;;;;;;;0.82;0.60;;;;;;;;;;5133155;28;20198;-63
2022/05/24 14:19:36;;;;;;;0.50;0.50;;;;;;;;;;5133352;28;20276;-63
2022/05/24 14:22:04;;;;;;;0.40;0.40;;;;;;;;;;5133852;28;20225;-63
2022/05/24 14:24:34;;;;;;;0.50;0.50;;;;;;;;;;5134409;28;20202;-63
2022/05/24 14:27:02;;;;;;;0.60;0.60;;;;;;;;;;5133136;28;20848;-63
2022/05/24 14:29:32;;;;;;;0.63;0.50;;;;;;;;;;5132956;28;20202;-63
2022/05/24 14:32:01;;;;;;;0.50;0.43;;;;;;;;;;5133126;28;20262;-63
2022/05/24 14:34:28;;;;;;;0.50;0.50;;;;;;;;;;5133431;28;20313;-63
2022/05/24 14:36:56;;;;;;;0.63;0.60;;;;;;;;;;5134419;28;20202;-63
2022/05/24 14:39:24;;;;;;;0.50;0.50;;;;;;;;;;5133761;28;20210;-62
2022/05/24 14:41:51;;;;;;;0.70;0.70;;;;;;;;;;5134226;28;20237;-62
2022/05/24 14:44:21;;;;;;;0.60;0.60;;;;;;;;;;5133575;28;20202;-63
2022/05/24 14:46:49;;;;;;;0.40;0.40;;;;;;;;;;5133963;28;20203;-63
2022/05/24 14:49:17;;;;;;;0.47;0.47;;;;;;;;;;5133384;28;20218;-62
2022/05/24 14:51:48;;;;;;;0.38;0.38;;;;;;;;;;5132994;28;20209;-62
2022/05/24 14:54:15;;;;;;;1.45;0.55;;;;;;;;;;5133933;28;20202;-63
2022/05/24 14:56:43;;;;;;;0.50;0.50;;;;;;;;;;5134118;28;20209;-63
2022/05/24 14:59:11;;;;;;;1.13;0.52;;;;;;;;;;5134092;28;20206;-63
2022/05/24 15:01:40;;;;;;;0.60;0.60;;;;;;;;;;5133773;27;20652;-63
2022/05/24 15:04:08;;;;;;;1.17;0.50;;;;;;;;;;5137676;27;20495;-63
2022/05/24 15:06:39;;;;;;;1.42;0.50;;;;;;;;;;5136556;27;20201;-63
2022/05/24 15:17:34;;;;;;;0.47;0.47;;;;;;;;;;5136786;27;20470;-62
2022/05/24 15:20:03;;;;;;;0.40;0.40;;;;;;;;;;5137264;27;20202;-63
2022/05/24 15:22:32;;;;;;;2.80;0.60;;;;;;;;;;5136921;27;20198;-62
2022/05/24 15:25:00;;;;;;;0.55;0.43;;;;;;;;;;5137118;27;20202;-63
2022/05/24 15:27:27;;;;;;;0.93;0.40;;;;;;;;;;5136617;27;20228;-63
2022/05/24 15:29:55;;;;;;;0.80;0.60;;;;;;;;;;5136514;27;20201;-62
2022/05/24 15:32:22;;;;;;;0.73;0.47;;;;;;;;;;5136818;27;20210;-62
2022/05/24 15:34:49;;;;;;;0.95;0.50;;;;;;;;;;5137215;27;20198;-63
2022/05/24 15:37:17;;;;;;;1.00;0.52;;;;;;;;;;5135917;27;20197;-62
2022/05/24 15:39:46;;;;;;;0.50;0.40;;;;;;;;;;5135772;27;20194;-63
2022/05/24 15:42:14;;;;;;;0.93;0.40;;;;;;;;;;5136643;27;20210;-62
2022/05/24 15:44:41;;;;;;;1.58;0.43;;;;;;;;;;5136730;27;20202;-63